Archival Weather

Scottsdale

Scottsdale, Arizona (KSDL)

Report from: Wednesday, December 6, 2023 5:53 PM MST
Current time: Wednesday, April 24, 2024 12:41 PM MST

Current weather – Weather history – Daily summaries
Weather forecast

Temperature22.8°C (73.0°F)
Dew point1.1°C (34.0°F)
Winds 3 kts (1.5 m/s, 3.5 mph) West (260°)
Visibility10 mi. (16.1 km)
Clouds Sky clear
Altimeter30.01 in.Hg (1016 mB)
Relative humidity24 %
Density altitude959 ft. (292 m)
Sea-level pressure101.5 kPa (1015 mB, 29.97 in.Hg)
Remarks Automated weather observing station with precipitation discriminator
Flight conditions Visual Meteorological Conditions
Raw dataKSDL 070053Z 26003KT 10SM CLR 23/01 A3001 RMK AO2 SLP148 T02280011
An error has occurred. This application may no longer respond until reloaded. Reload 🗙